createdAt,value
2016-06-06T08:40:07.761Z,1015.45
2016-06-06T08:41:07.733Z,1015.41
2016-06-06T08:42:07.720Z,1015.54
2016-06-06T08:43:07.708Z,1015.49
2016-06-06T08:44:07.694Z,1015.42
2016-06-06T08:45:08.885Z,1015.48
2016-06-06T08:46:07.683Z,1015.47
2016-06-06T08:47:07.671Z,1015.44
2016-06-06T08:48:07.658Z,1015.47
2016-06-06T08:49:07.630Z,1015.47
2016-06-06T08:50:07.632Z,1015.49
2016-06-06T08:51:07.604Z,1015.48
2016-06-06T08:52:07.591Z,1015.47
2016-06-06T08:53:07.577Z,1015.51
2016-06-06T08:54:07.580Z,1015.5
2016-06-06T08:55:07.552Z,1015.49
2016-06-06T08:56:07.554Z,1015.53
2016-06-06T08:57:07.542Z,1015.49
2016-06-06T08:58:07.512Z,1015.5
2016-06-06T08:59:07.516Z,1015.49
2016-06-06T09:00:07.503Z,1015.51
2016-06-06T09:01:07.474Z,1015.52
2016-06-06T09:02:07.477Z,1015.53
2016-06-06T09:03:07.464Z,1015.5
2016-06-06T09:04:07.451Z,1015.49
2016-06-06T09:05:07.439Z,1015.52
2016-06-06T09:06:07.425Z,1015.48
2016-06-06T09:07:07.412Z,1015.45
2016-06-06T09:08:07.399Z,1015.48
2016-06-06T09:09:07.387Z,1015.43
2016-06-06T09:10:07.373Z,1015.43
2016-06-06T09:11:07.361Z,1015.45
2016-06-06T09:12:07.348Z,1015.48
2016-06-06T09:13:07.335Z,1015.48
2016-06-06T09:14:08.181Z,1015.46
2016-06-06T09:15:07.308Z,1015.45
2016-06-06T09:16:07.311Z,1015.49
2016-06-06T09:17:07.283Z,1015.48
2016-06-06T09:18:07.286Z,1015.44
2016-06-06T09:19:07.272Z,1015.44
2016-06-06T09:20:07.244Z,1015.46
2016-06-06T09:21:07.232Z,1015.49
2016-06-06T09:22:07.218Z,1015.53
2016-06-06T09:23:07.205Z,1015.48
2016-06-06T09:24:07.193Z,1015.52
2016-06-06T09:25:07.179Z,1015.56
2016-06-06T09:26:07.166Z,1015.55
2016-06-06T09:27:07.169Z,1015.51
2016-06-06T09:28:07.141Z,1015.5
2016-06-06T09:29:07.393Z,1015.49
2016-06-06T09:30:07.131Z,1015.52
2016-06-06T09:31:07.101Z,1015.53
2016-06-06T09:32:07.104Z,1015.55
2016-06-06T09:33:07.092Z,1015.53
2016-06-06T09:34:07.079Z,1015.53
2016-06-06T09:35:07.066Z,1015.51
2016-06-06T09:36:07.053Z,1015.54
2016-06-06T09:37:07.087Z,1015.52
2016-06-06T09:38:07.027Z,1015.52
2016-06-06T09:39:07.014Z,1015.53
2016-06-06T09:40:07.001Z,1015.58
2016-06-06T09:41:07.004Z,1015.57
2016-06-06T09:42:06.991Z,1015.53
2016-06-06T09:43:06.978Z,1015.53
2016-06-06T09:44:06.964Z,1015.55
2016-06-06T09:45:06.937Z,1015.5
2016-06-06T09:46:06.924Z,1015.54
2016-06-06T09:47:06.911Z,1015.47
2016-06-06T09:48:06.897Z,1015.49
2016-06-06T09:49:06.900Z,1015.49
2016-06-06T09:50:06.871Z,1015.5
2016-06-06T09:51:06.874Z,1015.47
2016-06-06T09:52:06.846Z,1015.49
2016-06-06T09:53:06.833Z,1015.5
2016-06-06T09:54:06.836Z,1015.5
2016-06-06T09:55:06.823Z,1015.49
2016-06-06T09:56:06.810Z,1015.45
2016-06-06T09:57:06.813Z,1015.45
2016-06-06T09:58:06.784Z,1015.48
2016-06-06T09:59:06.787Z,1015.46
2016-06-06T10:00:06.758Z,1015.48
2016-06-06T10:01:06.761Z,1015.48
2016-06-06T10:02:06.732Z,1015.47
2016-06-06T10:03:06.720Z,1015.47
2016-06-06T10:04:06.706Z,1015.46
2016-06-06T10:05:06.693Z,1015.46
2016-06-06T10:06:06.681Z,1015.43
2016-06-06T10:07:06.668Z,1015.44
2016-06-06T10:08:06.654Z,1015.46
2016-06-06T10:09:06.642Z,1015.45
2016-06-06T10:10:06.628Z,1015.45
2016-06-06T10:11:06.617Z,1015.43
2016-06-06T10:12:06.619Z,1015.44
2016-06-06T10:13:06.589Z,1015.45
2016-06-06T10:14:07.109Z,1015.44
2016-06-06T10:15:06.705Z,1015.43
2016-06-06T10:16:06.551Z,1015.46
2016-06-06T10:17:06.538Z,1015.38
2016-06-06T10:18:06.541Z,1015.42
2016-06-06T10:19:06.510Z,1015.39
2016-06-06T10:20:06.513Z,1015.4
2016-06-06T10:21:06.500Z,1015.43
2016-06-06T10:22:06.486Z,1015.4
2016-06-06T10:23:06.474Z,1015.35
2016-06-06T10:24:06.461Z,1015.39
2016-06-06T10:25:06.447Z,1015.37
2016-06-06T10:26:06.450Z,1015.39
2016-06-06T10:27:06.422Z,1015.38
2016-06-06T10:28:06.409Z,1015.37
2016-06-06T10:29:06.395Z,1015.39
2016-06-06T10:30:06.571Z,1015.37
2016-06-06T10:31:06.370Z,1015.34
2016-06-06T10:32:06.357Z,1015.3
2016-06-06T10:33:06.343Z,1015.3
2016-06-06T10:34:06.331Z,1015.34
2016-06-06T10:35:06.334Z,1015.27
2016-06-06T10:36:06.306Z,1015.26
2016-06-06T10:37:06.292Z,1015.3
2016-06-06T10:38:06.279Z,1015.27
2016-06-06T10:39:06.266Z,1015.31
2016-06-06T10:40:06.254Z,1015.25
2016-06-06T10:41:06.240Z,1015.31
2016-06-06T10:42:06.228Z,1015.28
2016-06-06T10:43:06.214Z,1015.24
2016-06-06T10:44:06.217Z,1015.26
2016-06-06T10:45:06.189Z,1015.25
2016-06-06T10:46:06.176Z,1015.28
2016-06-06T10:47:06.163Z,1015.26
2016-06-06T10:48:06.150Z,1015.23
2016-06-06T10:49:06.137Z,1015.27
2016-06-06T10:50:06.124Z,1015.28
2016-06-06T10:51:06.127Z,1015.25
2016-06-06T10:52:06.099Z,1015.28
2016-06-06T10:53:06.102Z,1015.23
2016-06-06T10:54:06.072Z,1015.23
2016-06-06T10:55:06.060Z,1015.21
2016-06-06T10:56:06.047Z,1015.27
2016-06-06T10:57:06.033Z,1015.27
2016-06-06T10:58:06.021Z,1015.19
2016-06-06T10:59:06.007Z,1015.15
2016-06-06T11:00:06.010Z,1015.16
2016-06-06T11:01:05.982Z,1015.21
2016-06-06T11:02:05.985Z,1015.19
2016-06-06T11:03:05.956Z,1015.13
2016-06-06T11:04:05.943Z,1015.13
2016-06-06T11:05:05.946Z,1015.14
2016-06-06T11:06:05.918Z,1015.15
2016-06-06T11:07:05.921Z,1015.15
2016-06-06T11:08:06.157Z,1015.12
2016-06-06T11:09:05.894Z,1015.1
2016-06-06T11:10:05.897Z,1015.12
2016-06-06T11:11:05.868Z,1015.13
2016-06-06T11:12:05.856Z,1015.13
2016-06-06T11:13:05.842Z,1015.08
2016-06-06T11:14:05.829Z,1015.13
2016-06-06T11:15:05.817Z,1015.11
2016-06-06T11:16:05.803Z,1015.08
2016-06-06T11:17:05.791Z,1015.09
2016-06-06T11:18:05.777Z,1015.15
2016-06-06T11:19:05.765Z,1015.12
2016-06-06T11:20:05.752Z,1015.11
2016-06-06T11:21:05.739Z,1015.1
2016-06-06T11:22:05.726Z,1015.07
2016-06-06T11:23:05.713Z,1015.04
2016-06-06T11:24:05.700Z,1015.06
2016-06-06T11:25:05.688Z,1015.03
2016-06-06T11:26:05.674Z,1015.03
2016-06-06T11:27:05.661Z,1015.09
2016-06-06T11:28:05.649Z,1015.11
2016-06-06T11:29:05.916Z,1015.08
2016-06-06T11:30:05.622Z,1015.1
2016-06-06T11:31:05.625Z,1015.05
2016-06-06T11:32:05.612Z,1015.08
2016-06-06T11:33:05.584Z,1015.06
2016-06-06T11:34:05.571Z,1015.08
2016-06-06T11:35:05.557Z,1015.05
2016-06-06T11:36:05.545Z,1015.07
2016-06-06T11:37:05.532Z,1015.04
2016-06-06T11:38:05.535Z,1015.06
2016-06-06T11:39:05.521Z,1015.04
2016-06-06T11:40:05.509Z,1015.05
2016-06-06T11:41:05.480Z,1015.07
2016-06-06T11:42:05.483Z,1015.02
2016-06-06T11:43:05.470Z,1015.07
2016-06-06T11:44:05.504Z,1015.06
2016-06-06T11:45:05.444Z,1015.04
2016-06-06T11:46:05.431Z,1015.03
2016-06-06T11:47:05.418Z,1015
2016-06-06T11:48:05.405Z,1014.99
2016-06-06T11:49:05.392Z,1015
2016-06-06T11:50:05.380Z,1014.99
2016-06-06T11:51:05.367Z,1014.99
2016-06-06T11:52:05.353Z,1014.96
2016-06-06T11:53:05.341Z,1014.98
2016-06-06T11:54:05.328Z,1014.95
2016-06-06T11:55:05.314Z,1014.94
2016-06-06T11:56:05.302Z,1014.97
2016-06-06T11:57:05.289Z,1014.95
2016-06-06T11:58:05.291Z,1014.9
2016-06-06T11:59:05.263Z,1014.84
2016-06-06T12:00:05.249Z,1014.84
2016-06-06T12:01:05.238Z,1014.89
2016-06-06T12:02:05.240Z,1014.83
2016-06-06T12:03:05.210Z,1014.85
2016-06-06T12:04:05.214Z,1014.85
2016-06-06T12:05:05.217Z,1014.82
2016-06-06T12:06:05.188Z,1014.88
2016-06-06T12:07:05.175Z,1014.85
2016-06-06T12:08:05.163Z,1014.8
2016-06-06T12:09:05.212Z,1014.8
2016-06-06T12:10:05.136Z,1014.83
2016-06-06T12:11:05.124Z,1014.78
2016-06-06T12:12:05.110Z,1014.77
2016-06-06T12:13:05.098Z,1014.77
2016-06-06T12:14:05.960Z,1014.8
2016-06-06T12:15:10.587Z,1014.76
2016-06-06T12:16:05.059Z,1014.76
2016-06-06T12:17:05.046Z,1014.72
2016-06-06T12:18:05.033Z,1014.68
2016-06-06T12:19:05.036Z,1014.66
2016-06-06T12:20:05.007Z,1014.7
2016-06-06T12:21:04.994Z,1014.62
2016-06-06T12:22:04.997Z,1014.62
2016-06-06T12:23:04.984Z,1014.62
2016-06-06T12:24:04.971Z,1014.64
2016-06-06T12:25:04.974Z,1014.64
2016-06-06T12:26:04.944Z,1014.59
2016-06-06T12:27:04.932Z,1014.61
2016-06-06T12:28:04.919Z,1014.62
2016-06-06T12:29:04.905Z,1014.56
2016-06-06T12:30:04.893Z,1014.54
2016-06-06T12:31:04.896Z,1014.51
2016-06-06T12:32:04.868Z,1014.53
2016-06-06T12:33:04.855Z,1014.48
2016-06-06T12:34:04.857Z,1014.46
2016-06-06T12:35:04.828Z,1014.49
2016-06-06T12:36:04.832Z,1014.41
2016-06-06T12:37:04.802Z,1014.44
2016-06-06T12:38:04.805Z,1014.44
2016-06-06T12:39:04.792Z,1014.5
2016-06-06T12:40:04.764Z,1014.46
2016-06-06T12:41:04.751Z,1014.42
2016-06-06T12:42:04.754Z,1014.38
2016-06-06T12:43:04.740Z,1014.4
2016-06-06T12:44:04.729Z,1014.41
2016-06-06T12:45:04.699Z,1014.45
2016-06-06T12:46:04.701Z,1014.43
2016-06-06T12:47:04.689Z,1014.46
2016-06-06T12:48:04.676Z,1014.48
2016-06-06T12:49:04.664Z,1014.45
2016-06-06T12:50:04.650Z,1014.52
2016-06-06T12:51:04.637Z,1014.54
2016-06-06T12:52:04.625Z,1014.53
2016-06-06T12:53:04.611Z,1014.54
2016-06-06T12:54:04.598Z,1014.6
2016-06-06T12:55:04.586Z,1014.6
2016-06-06T12:56:04.589Z,1014.59
2016-06-06T12:57:04.575Z,1014.6
2016-06-06T12:58:04.562Z,1014.63
2016-06-06T12:59:04.893Z,1014.63
2016-06-06T13:00:04.521Z,1014.61
2016-06-06T13:01:04.524Z,1014.66
2016-06-06T13:02:04.511Z,1014.64
2016-06-06T13:03:04.513Z,1014.66
2016-06-06T13:04:04.485Z,1014.66
2016-06-06T13:05:04.471Z,1014.67
2016-06-06T13:06:04.460Z,1014.65
2016-06-06T13:07:04.446Z,1014.65
2016-06-06T13:08:04.432Z,1014.63
2016-06-06T13:09:04.421Z,1014.66
2016-06-06T13:10:04.407Z,1014.68
2016-06-06T13:11:04.394Z,1014.67
2016-06-06T13:12:04.381Z,1014.71
2016-06-06T13:13:04.368Z,1014.71
2016-06-06T13:14:04.371Z,1014.7
2016-06-06T13:15:04.812Z,1014.69
2016-06-06T13:16:04.345Z,1014.67
2016-06-06T13:17:04.332Z,1014.63
2016-06-06T13:18:04.319Z,1014.68
2016-06-06T13:19:04.290Z,1014.67
2016-06-06T13:20:04.293Z,1014.7
2016-06-06T13:21:04.281Z,1014.66
2016-06-06T13:22:04.267Z,1014.66
2016-06-06T13:23:04.255Z,1014.66
2016-06-06T13:24:04.242Z,1014.64
2016-06-06T13:25:04.228Z,1014.65
2016-06-06T13:26:04.216Z,1014.62
2016-06-06T13:27:04.203Z,1014.61
2016-06-06T13:28:04.205Z,1014.59
2016-06-06T13:29:05.099Z,1014.66
2016-06-06T13:30:04.180Z,1014.56
2016-06-06T13:31:04.166Z,1014.59
2016-06-06T13:32:04.263Z,1014.59
2016-06-06T13:33:04.141Z,1014.62
2016-06-06T13:34:04.127Z,1014.6
2016-06-06T13:35:04.130Z,1014.61
2016-06-06T13:36:04.102Z,1014.61
2016-06-06T13:37:04.089Z,1014.61
2016-06-06T13:38:04.076Z,1014.63
2016-06-06T13:39:04.079Z,1014.6
2016-06-06T13:40:04.301Z,1014.59
2016-06-06T13:41:04.037Z,1014.6
2016-06-06T13:42:04.024Z,1014.62
2016-06-06T13:43:04.011Z,1014.6
2016-06-06T13:44:03.999Z,1014.59
2016-06-06T13:45:04.346Z,1014.58
2016-06-06T13:46:03.973Z,1014.59
2016-06-06T13:47:03.975Z,1014.58
2016-06-06T13:48:04.198Z,1014.54
2016-06-06T13:49:03.950Z,1014.53
2016-06-06T13:50:03.936Z,1014.56
2016-06-06T13:51:03.923Z,1014.53
2016-06-06T13:52:03.911Z,1014.53
2016-06-06T13:53:03.898Z,1014.49
2016-06-06T13:54:03.884Z,1014.47
2016-06-06T13:55:03.872Z,1014.48
2016-06-06T13:56:04.219Z,1014.46
2016-06-06T13:57:03.846Z,1014.49
2016-06-06T13:58:03.833Z,1014.44
2016-06-06T13:59:03.835Z,1014.47
2016-06-06T14:00:03.916Z,1014.44
2016-06-06T14:01:03.794Z,1014.46
2016-06-06T14:02:03.797Z,1014.43
2016-06-06T14:03:03.784Z,1014.42
2016-06-06T14:04:04.208Z,1014.44
2016-06-06T14:05:03.758Z,1014.43
2016-06-06T14:06:03.746Z,1014.42
2016-06-06T14:07:03.733Z,1014.44
2016-06-06T14:08:03.719Z,1014.42
2016-06-06T14:09:03.707Z,1014.39
2016-06-06T14:10:03.693Z,1014.37
2016-06-06T14:11:03.680Z,1014.4
2016-06-06T14:12:04.371Z,1014.44
2016-06-06T14:13:03.655Z,1014.37
2016-06-06T14:14:03.642Z,1014.37
2016-06-06T14:15:03.645Z,1014.36
2016-06-06T14:16:03.632Z,1014.41
2016-06-06T14:17:03.619Z,1014.36
2016-06-06T14:18:03.606Z,1014.37
2016-06-06T14:19:03.592Z,1014.38
2016-06-06T14:20:04.220Z,1014.35
2016-06-06T14:21:03.567Z,1014.34
2016-06-06T14:22:03.553Z,1014.3
2016-06-06T14:23:03.541Z,1014.27
2016-06-06T14:24:03.528Z,1014.23
2016-06-06T14:25:03.515Z,1014.27
2016-06-06T14:26:03.503Z,1014.23
2016-06-06T14:27:03.489Z,1014.26
2016-06-06T14:28:03.538Z,1014.25
2016-06-06T14:29:03.464Z,1014.23
2016-06-06T14:30:04.028Z,1014.26
2016-06-06T14:31:03.452Z,1014.28
2016-06-06T14:32:03.441Z,1014.31
2016-06-06T14:33:03.427Z,1014.29
2016-06-06T14:34:03.414Z,1014.26
2016-06-06T14:35:03.401Z,1014.32
2016-06-06T14:36:03.388Z,1014.26
2016-06-06T14:37:03.375Z,1014.29
2016-06-06T14:38:03.363Z,1014.28
2016-06-06T14:39:03.349Z,1014.29
2016-06-06T14:40:03.338Z,1014.31
2016-06-06T14:41:03.324Z,1014.29
2016-06-06T14:42:03.310Z,1014.3
2016-06-06T14:43:03.313Z,1014.31
2016-06-06T14:44:03.285Z,1014.27
2016-06-06T14:45:03.288Z,1014.27
2016-06-06T14:46:03.274Z,1014.29
2016-06-06T14:47:03.277Z,1014.27
2016-06-06T14:48:03.248Z,1014.33
2016-06-06T14:49:03.237Z,1014.26
2016-06-06T14:50:03.426Z,1014.3
2016-06-06T14:51:03.209Z,1014.29
2016-06-06T14:52:03.197Z,1014.27
2016-06-06T14:53:03.184Z,1014.28
2016-06-06T14:54:03.170Z,1014.28
2016-06-06T14:55:03.158Z,1014.31
2016-06-06T14:56:03.161Z,1014.29
2016-06-06T14:57:03.133Z,1014.3
2016-06-06T14:58:03.431Z,1014.27
2016-06-06T14:59:03.123Z,1014.33
2016-06-06T15:00:03.172Z,1014.26
2016-06-06T15:01:03.097Z,1014.28
2016-06-06T15:02:03.083Z,1014.28
2016-06-06T15:03:03.086Z,1014.26
2016-06-06T15:04:03.058Z,1014.27
2016-06-06T15:05:03.044Z,1014.28
2016-06-06T15:06:03.282Z,1014.23
2016-06-06T15:07:03.019Z,1014.24
2016-06-06T15:08:03.005Z,1014.24
2016-06-06T15:09:02.994Z,1014.28
2016-06-06T15:10:02.996Z,1014.26
2016-06-06T15:11:02.982Z,1014.28
2016-06-06T15:12:02.954Z,1014.27
2016-06-06T15:13:02.957Z,1014.27
2016-06-06T15:14:03.287Z,1014.26
2016-06-06T15:15:02.931Z,1014.28
2016-06-06T15:16:02.918Z,1014.29
2016-06-06T15:17:02.904Z,1014.3
2016-06-06T15:18:02.892Z,1014.29
2016-06-06T15:19:02.879Z,1014.27
2016-06-06T15:20:02.882Z,1014.28
2016-06-06T15:21:02.854Z,1014.27
2016-06-06T15:22:03.450Z,1014.26
2016-06-06T15:23:02.843Z,1014.31
2016-06-06T15:24:02.815Z,1014.29
2016-06-06T15:25:02.818Z,1014.31
2016-06-06T15:26:02.804Z,1014.26
2016-06-06T15:27:02.791Z,1014.28
2016-06-06T15:28:02.778Z,1014.28
2016-06-06T15:29:02.765Z,1014.26
2016-06-06T15:30:03.300Z,1014.27
2016-06-06T15:31:02.740Z,1014.22
2016-06-06T15:32:02.727Z,1014.24
2016-06-06T15:33:02.714Z,1014.23
2016-06-06T15:34:02.700Z,1014.22
2016-06-06T15:35:02.689Z,1014.24
2016-06-06T15:36:02.675Z,1014.26
2016-06-06T15:37:02.662Z,1014.22
2016-06-06T15:38:03.461Z,1014.21
2016-06-06T15:39:02.652Z,1014.2
2016-06-06T15:40:02.639Z,1014.18
2016-06-06T15:41:02.626Z,1014.14
2016-06-06T15:42:02.613Z,1014.13
2016-06-06T15:43:02.599Z,1014.13
2016-06-06T15:44:02.587Z,1014.13
2016-06-06T15:45:02.574Z,1014.08
2016-06-06T15:46:02.561Z,1014.13
2016-06-06T15:47:02.549Z,1014.09
2016-06-06T15:48:02.535Z,1014.07
2016-06-06T15:49:02.523Z,1014.07
2016-06-06T15:50:02.510Z,1014.05
2016-06-06T15:51:02.497Z,1014.04
2016-06-06T15:52:02.499Z,1014.06
2016-06-06T15:53:02.487Z,1014.01
2016-06-06T15:54:02.473Z,1014.02
2016-06-06T15:55:02.460Z,1013.99
2016-06-06T15:56:02.448Z,1014
2016-06-06T15:57:02.434Z,1013.96
2016-06-06T15:58:02.422Z,1013.94
2016-06-06T15:59:02.409Z,1013.94
2016-06-06T16:00:02.662Z,1013.93
2016-06-06T16:01:02.383Z,1013.9
2016-06-06T16:02:02.370Z,1013.91
2016-06-06T16:03:02.357Z,1013.87
2016-06-06T16:04:02.344Z,1013.86
2016-06-06T16:05:02.347Z,1013.88
2016-06-06T16:06:02.334Z,1013.87
2016-06-06T16:07:02.321Z,1013.91
2016-06-06T16:08:02.308Z,1013.86
2016-06-06T16:09:02.295Z,1013.88
2016-06-06T16:10:02.283Z,1013.82
2016-06-06T16:11:02.269Z,1013.84
2016-06-06T16:12:02.256Z,1013.85
2016-06-06T16:13:02.244Z,1013.83
2016-06-06T16:14:02.231Z,1013.84
2016-06-06T16:15:02.499Z,1013.84
2016-06-06T16:16:02.205Z,1013.85
2016-06-06T16:17:02.207Z,1013.84
2016-06-06T16:18:02.194Z,1013.86
2016-06-06T16:19:02.166Z,1013.9
2016-06-06T16:20:02.169Z,1013.88
2016-06-06T16:21:02.155Z,1013.89
2016-06-06T16:22:02.143Z,1013.86
2016-06-06T16:23:02.130Z,1013.87
2016-06-06T16:24:02.117Z,1013.85
2016-06-06T16:25:02.104Z,1013.89
2016-06-06T16:26:02.091Z,1013.86
2016-06-06T16:27:02.078Z,1013.88
2016-06-06T16:28:02.065Z,1013.9
2016-06-06T16:29:02.068Z,1013.88
2016-06-06T16:30:02.039Z,1013.91
2016-06-06T16:31:02.026Z,1013.92
2016-06-06T16:32:02.029Z,1013.97
2016-06-06T16:33:02.016Z,1013.97
2016-06-06T16:34:02.003Z,1013.96
2016-06-06T16:35:01.990Z,1013.93
2016-06-06T16:36:01.978Z,1013.98
2016-06-06T16:37:01.964Z,1013.99
2016-06-06T16:38:01.951Z,1013.99
2016-06-06T16:39:01.939Z,1013.99
2016-06-06T16:40:01.925Z,1013.98
2016-06-06T16:41:01.913Z,1014.03
2016-06-06T16:42:01.916Z,1013.97
2016-06-06T16:43:01.891Z,1013.95
2016-06-06T16:44:01.899Z,1014
2016-06-06T16:45:01.891Z,1013.99
2016-06-06T16:46:01.883Z,1014.02
2016-06-06T16:47:01.875Z,1014.02
2016-06-06T16:48:01.865Z,1013.99
2016-06-06T16:49:01.853Z,1014.02
2016-06-06T16:50:01.841Z,1014.06
2016-06-06T16:51:01.830Z,1014.04
2016-06-06T16:52:01.818Z,1014.06
2016-06-06T16:53:01.807Z,1014.02
2016-06-06T16:54:01.794Z,1014.09
2016-06-06T16:55:01.782Z,1014.07
2016-06-06T16:56:01.770Z,1014.04
2016-06-06T16:57:01.774Z,1014.07
2016-06-06T16:58:01.761Z,1014.06
2016-06-06T16:59:01.748Z,1014.08
2016-06-06T17:00:01.736Z,1014.03
2016-06-06T17:01:01.723Z,1014.03
2016-06-06T17:02:01.711Z,1014.03
2016-06-06T17:03:01.698Z,1014.03
2016-06-06T17:04:01.684Z,1014.01
2016-06-06T17:05:01.687Z,1014
2016-06-06T17:06:01.658Z,1013.98
2016-06-06T17:07:01.662Z,1013.96
2016-06-06T17:08:01.633Z,1014
2016-06-06T17:09:01.620Z,1013.99
2016-06-06T17:10:01.608Z,1013.96
2016-06-06T17:11:01.610Z,1013.98
2016-06-06T17:12:01.597Z,1013.92
2016-06-06T17:13:01.584Z,1013.95
2016-06-06T17:14:01.571Z,1013.89
2016-06-06T17:15:01.558Z,1013.96
2016-06-06T17:16:01.546Z,1013.92
2016-06-06T17:17:01.548Z,1013.91
2016-06-06T17:18:01.519Z,1013.92
2016-06-06T17:19:01.522Z,1013.92
2016-06-06T17:20:01.493Z,1013.9
2016-06-06T17:21:01.480Z,1013.89
2016-06-06T17:22:01.483Z,1013.9
2016-06-06T17:23:01.455Z,1013.87
2016-06-06T17:24:01.457Z,1013.88
2016-06-06T17:25:01.445Z,1013.82
2016-06-06T17:26:01.431Z,1013.9
2016-06-06T17:27:01.418Z,1013.82
2016-06-06T17:28:01.406Z,1013.85
2016-06-06T17:29:01.408Z,1013.86
2016-06-06T17:30:01.396Z,1013.83
2016-06-06T17:31:01.367Z,1013.79
2016-06-06T17:32:01.353Z,1013.84
2016-06-06T17:33:01.357Z,1013.82
2016-06-06T17:34:01.344Z,1013.81
2016-06-06T17:35:01.330Z,1013.84
2016-06-06T17:36:01.317Z,1013.79
2016-06-06T17:37:01.305Z,1013.77
2016-06-06T17:38:01.291Z,1013.8
2016-06-06T17:39:01.279Z,1013.81
2016-06-06T17:40:01.281Z,1013.79
2016-06-06T17:41:01.252Z,1013.77
2016-06-06T17:42:01.241Z,1013.78
2016-06-06T17:43:01.243Z,1013.76
2016-06-06T17:44:01.214Z,1013.83
2016-06-06T17:45:01.201Z,1013.77
2016-06-06T17:46:01.205Z,1013.78
2016-06-06T17:47:01.191Z,1013.77
2016-06-06T17:48:01.177Z,1013.82
2016-06-06T17:49:01.166Z,1013.81
2016-06-06T17:50:01.152Z,1013.85
2016-06-06T17:51:01.139Z,1013.85
2016-06-06T17:52:01.126Z,1013.88
2016-06-06T17:53:01.129Z,1013.89
2016-06-06T17:54:01.101Z,1013.87
2016-06-06T17:55:01.087Z,1013.9
2016-06-06T17:56:01.074Z,1013.9
2016-06-06T17:57:01.077Z,1013.92
2016-06-06T17:58:01.064Z,1013.94
2016-06-06T17:59:01.051Z,1013.97
2016-06-06T18:00:01.039Z,1013.95
2016-06-06T18:01:01.026Z,1013.93
2016-06-06T18:02:01.012Z,1013.9
2016-06-06T18:03:01.000Z,1013.96
2016-06-06T18:04:00.987Z,1013.98
2016-06-06T18:05:00.973Z,1014
2016-06-06T18:06:00.961Z,1013.95
2016-06-06T18:07:00.964Z,1014.03
2016-06-06T18:08:00.950Z,1013.99
2016-06-06T18:09:00.922Z,1014.03
2016-06-06T18:10:00.909Z,1014.03
2016-06-06T18:11:00.911Z,1014.05
2016-06-06T18:12:00.899Z,1014.02
2016-06-06T18:13:00.886Z,1014.06
2016-06-06T18:14:00.873Z,1014.08
2016-06-06T18:15:00.875Z,1014.09
2016-06-06T18:16:00.847Z,1014.09
2016-06-06T18:17:00.835Z,1014.12
2016-06-06T18:18:00.821Z,1014.08
2016-06-06T18:19:00.808Z,1014.09
2016-06-06T18:20:00.796Z,1014.12
2016-06-06T18:21:00.799Z,1014.09
2016-06-06T18:22:00.785Z,1014.11
2016-06-06T18:23:00.819Z,1014.18
2016-06-06T18:24:00.759Z,1014.12
2016-06-06T18:25:00.747Z,1014.14
2016-06-06T18:26:00.733Z,1014.15
2016-06-06T18:27:00.720Z,1014.14
2016-06-06T18:28:00.707Z,1014.19
2016-06-06T18:29:00.695Z,1014.23
2016-06-06T18:30:00.681Z,1014.2
2016-06-06T18:31:00.669Z,1014.21
2016-06-06T18:32:00.656Z,1014.21
2016-06-06T18:33:00.642Z,1014.23
2016-06-06T18:34:00.630Z,1014.27
2016-06-06T18:35:00.617Z,1014.23
2016-06-06T18:36:00.620Z,1014.24
2016-06-06T18:37:00.606Z,1014.23
2016-06-06T18:38:00.594Z,1014.25
2016-06-06T18:39:00.581Z,1014.21
2016-06-06T18:40:00.567Z,1014.29
2016-06-06T18:41:00.555Z,1014.31
2016-06-06T18:42:00.542Z,1014.28
2016-06-06T18:43:00.529Z,1014.28
2016-06-06T18:44:00.517Z,1014.26
2016-06-06T18:45:00.988Z,1014.3
2016-06-06T18:46:00.491Z,1014.26
2016-06-06T18:47:00.477Z,1014.25
2016-06-06T18:48:00.464Z,1014.29
2016-06-06T18:49:00.467Z,1014.31
2016-06-06T18:50:00.454Z,1014.32
2016-06-06T18:51:00.441Z,1014.33
2016-06-06T18:52:00.429Z,1014.32
2016-06-06T18:53:00.416Z,1014.34
2016-06-06T18:54:00.402Z,1014.37
2016-06-06T18:55:00.389Z,1014.34
2016-06-06T18:56:00.377Z,1014.36
2016-06-06T18:57:00.363Z,1014.39
2016-06-06T18:58:00.366Z,1014.39
2016-06-06T18:59:00.338Z,1014.37
2016-06-06T19:00:00.340Z,1014.38
2016-06-06T19:01:00.327Z,1014.38
2016-06-06T19:02:00.314Z,1014.39
2016-06-06T19:03:00.301Z,1014.39
2016-06-06T19:04:00.289Z,1014.38
2016-06-06T19:05:00.275Z,1014.41
2016-06-06T19:06:00.262Z,1014.41
2016-06-06T19:07:00.250Z,1014.43
2016-06-06T19:08:00.237Z,1014.44
2016-06-06T19:09:00.224Z,1014.47
2016-06-06T19:10:00.211Z,1014.44
2016-06-06T19:11:00.198Z,1014.49
2016-06-06T19:12:00.186Z,1014.44
2016-06-06T19:13:00.188Z,1014.48
2016-06-06T19:14:00.175Z,1014.47
2016-06-06T19:15:00.146Z,1014.45
2016-06-06T19:16:00.134Z,1014.46
2016-06-06T19:17:00.136Z,1014.47
2016-06-06T19:18:00.124Z,1014.45
2016-06-06T19:19:00.110Z,1014.48
2016-06-06T19:20:00.097Z,1014.5
2016-06-06T19:21:00.085Z,1014.49
2016-06-06T19:22:00.072Z,1014.48
2016-06-06T19:23:00.058Z,1014.49
2016-06-06T19:24:00.046Z,1014.5
2016-06-06T19:25:00.048Z,1014.57
2016-06-06T19:26:00.020Z,1014.55
2016-06-06T19:27:00.007Z,1014.53
2016-06-06T19:27:59.993Z,1014.53
2016-06-06T19:28:59.996Z,1014.54
2016-06-06T19:29:59.984Z,1014.56
2016-06-06T19:30:59.971Z,1014.57
2016-06-06T19:31:59.957Z,1014.59
2016-06-06T19:32:59.945Z,1014.56
2016-06-06T19:33:59.932Z,1014.58
2016-06-06T19:35:00.122Z,1014.59
2016-06-06T19:35:59.906Z,1014.6
2016-06-06T19:36:59.893Z,1014.57
2016-06-06T19:37:59.881Z,1014.58
2016-06-06T19:38:59.867Z,1014.6
2016-06-06T19:39:59.854Z,1014.6
2016-06-06T19:40:59.842Z,1014.6
2016-06-06T19:41:59.828Z,1014.64
2016-06-06T19:42:59.816Z,1014.6
2016-06-06T19:43:59.819Z,1014.64
2016-06-06T19:44:59.805Z,1014.61
2016-06-06T19:45:59.792Z,1014.61
2016-06-06T19:46:59.780Z,1014.68
2016-06-06T19:47:59.766Z,1014.68
2016-06-06T19:49:00.394Z,1014.69
2016-06-06T19:49:59.740Z,1014.74
2016-06-06T19:50:59.727Z,1014.73
2016-06-06T19:51:59.715Z,1014.71
2016-06-06T19:52:59.702Z,1014.74
2016-06-06T19:53:59.688Z,1014.74
2016-06-06T19:54:59.676Z,1014.77
2016-06-06T19:55:59.663Z,1014.79
2016-06-06T19:56:59.650Z,1014.74
2016-06-06T19:57:59.637Z,1014.8
2016-06-06T19:58:59.624Z,1014.78
2016-06-06T19:59:59.611Z,1014.82
2016-06-06T20:00:59.614Z,1014.78
2016-06-06T20:01:59.601Z,1014.78
2016-06-06T20:02:59.587Z,1014.79
2016-06-06T20:03:59.575Z,1014.82
2016-06-06T20:04:59.563Z,1014.85
2016-06-06T20:05:59.548Z,1014.82
2016-06-06T20:06:59.537Z,1014.84
2016-06-06T20:07:59.523Z,1014.87
2016-06-06T20:08:59.511Z,1014.8
2016-06-06T20:09:59.497Z,1014.82
2016-06-06T20:10:59.484Z,1014.85
2016-06-06T20:11:59.472Z,1014.86
2016-06-06T20:12:59.458Z,1014.84
2016-06-06T20:13:59.461Z,1014.87
2016-06-06T20:14:59.433Z,1014.81
2016-06-06T20:15:59.419Z,1014.86
2016-06-06T20:16:59.407Z,1014.86
2016-06-06T20:17:59.394Z,1014.84
2016-06-06T20:18:59.381Z,1014.88
2016-06-06T20:20:00.336Z,1014.87
2016-06-06T20:20:59.840Z,1014.9
2016-06-06T20:21:59.342Z,1014.83
2016-06-06T20:22:59.344Z,1014.85
2016-06-06T20:23:59.332Z,1014.87
2016-06-06T20:24:59.319Z,1014.86
2016-06-06T20:25:59.306Z,1014.85
2016-06-06T20:26:59.293Z,1014.84
2016-06-06T20:27:59.280Z,1014.85
2016-06-06T20:28:59.268Z,1014.81
2016-06-06T20:29:59.254Z,1014.86
2016-06-06T20:30:59.241Z,1014.84
2016-06-06T20:31:59.229Z,1014.83
2016-06-06T20:32:59.216Z,1014.85
2016-06-06T20:33:59.204Z,1014.87
2016-06-06T20:34:59.190Z,1014.89
2016-06-06T20:35:59.176Z,1014.86
2016-06-06T20:36:59.164Z,1014.89
2016-06-06T20:37:59.151Z,1014.85
2016-06-06T20:38:59.137Z,1014.85
2016-06-06T20:39:59.125Z,1014.84
2016-06-06T20:40:59.112Z,1014.84
2016-06-06T20:41:59.115Z,1014.85
2016-06-06T20:42:59.102Z,1014.83
2016-06-06T20:43:59.073Z,1014.87
2016-06-06T20:44:59.060Z,1014.87
2016-06-06T20:45:59.047Z,1014.85
2016-06-06T20:46:59.050Z,1014.88
2016-06-06T20:47:59.037Z,1014.89